createdAt,value
2017-12-19T00:19:03.035Z,92.80
2017-12-19T00:39:38.304Z,92.35
2017-12-19T01:00:11.730Z,92.03
2017-12-19T01:20:45.778Z,93.51
2017-12-19T01:41:21.047Z,93.15
2017-12-19T02:01:58.470Z,93.37
2017-12-19T02:22:31.595Z,93.61
2017-12-19T02:43:19.767Z,93.63
2017-12-19T03:03:51.963Z,93.38
2017-12-19T03:24:25.098Z,92.88
2017-12-19T03:44:59.434Z,93.27
2017-12-19T04:05:32.556Z,92.79
2017-12-19T04:26:03.834Z,92.79
2017-12-19T04:46:37.326Z,92.52
2017-12-19T05:07:11.544Z,91.66
2017-12-19T05:27:44.425Z,91.67
2017-12-19T05:48:16.623Z,92.42
2017-12-19T06:08:48.820Z,92.41
2017-12-19T06:29:24.102Z,91.60
2017-12-19T06:49:59.366Z,91.46
2017-12-19T07:10:33.834Z,92.94
2017-12-19T07:31:15.135Z,93.01
2017-12-19T07:51:51.019Z,93.51
2017-12-19T08:12:25.369Z,92.66
2017-12-19T08:33:01.575Z,92.18
2017-12-19T08:53:37.448Z,91.25
2017-12-19T09:14:10.880Z,90.38
2017-12-19T09:34:47.377Z,90.16
2017-12-19T09:55:21.425Z,89.57
2017-12-19T10:15:55.770Z,90.75
2017-12-19T10:36:34.225Z,89.61
2017-12-19T10:57:09.463Z,89.15
2017-12-19T11:17:42.507Z,89.94
2017-12-19T11:38:19.621Z,89.09
2017-12-19T11:58:56.164Z,88.21
2017-12-19T12:19:31.086Z,88.08
2017-12-19T12:40:04.208Z,87.29
2017-12-19T13:00:38.557Z,88.77
2017-12-19T13:21:11.743Z,87.73
2017-12-19T13:41:43.880Z,85.72
2017-12-19T14:02:18.227Z,90.50
2017-12-19T14:22:59.341Z,91.69
2017-12-19T14:43:35.833Z,88.22
2017-12-19T15:04:08.961Z,90.96
2017-12-19T15:24:44.229Z,91.56
2017-12-19T15:45:19.497Z,92.44
2017-12-19T16:05:52.623Z,92.33
2017-12-19T16:26:26.972Z,92.22
2017-12-19T16:47:01.012Z,92.34
2017-12-19T17:07:35.524Z,92.37
2017-12-19T17:28:09.408Z,91.84
2017-12-19T17:48:46.830Z,92.04
2017-12-19T18:09:23.236Z,91.66
2017-12-19T18:29:57.069Z,92.75
2017-12-19T18:50:33.564Z,92.23
2017-12-19T19:11:07.929Z,92.09
2017-12-19T19:31:39.810Z,92.15
2017-12-19T19:52:12.932Z,92.60
2017-12-19T20:12:47.285Z,92.75
2017-12-19T20:33:22.554Z,93.12
2017-12-19T20:53:55.676Z,92.77
2017-12-19T21:14:28.800Z,92.45
2017-12-19T21:35:04.378Z,93.01
2017-12-19T21:55:38.658Z,93.22
2017-12-19T22:16:12.464Z,92.73
2017-12-19T22:36:46.819Z,93.03
2017-12-19T22:57:22.083Z,92.50
2017-12-19T23:17:56.131Z,93.58
2017-12-19T23:38:30.767Z,93.20
2017-12-19T23:59:06.672Z,93.97
